Da?oguz Airport
UTAT : now visible

Airfield :











YOU CAN JOIN US ON...

 
LOGIN :

Register | Disclaimer

   EN    FR    IT 

 









Legend :    VFR   Marginal VFR   IFR   Intensive IFR   Very Intensive IFR
Visi :
Ceiling :
>= 8 km
>= 3000ft
5 to 8 km
1000 to 3000 ft
1500m to 5 km
500 to 1000 ft
800 to 1500m
200 to 500 ft
< 800m
< 200 ft
Symbols :   Thunderstorms  Fog  Heavy snow  Heavy precipitations  Wind > 20 kt






- Airport Elevation : 272 ft
- IATA code : TAZ


UTAT - Da?oguz

CURRENT METAR :
  • 260200Z 32018G28KT 9999 OVC024 07/02 Q1011 R26/CLRD70 NOSIG

EXPIRED METARs :
  • 260100Z 32016G26KT 9999 -RA OVC018 08/04 Q1010 R26/CLRD70 NOSIG
  • 260000Z 33016G26KT 9999 BKN018 OVC100 08/04 Q1009 R26/CLRD70 NOSIG

TAF TAF UTAT
Valid from the 26 at 00:00 until the 27 at 00:00 UTC


252234Z 2600/2624 27018G28KT 5000 -SHRA SCT020CB OVC050
TEMPO 2600/2606 33022G32KT 1000 TSRA OVC003
PROB40
TEMPO 2600/2606 VRB34KT 0500 DS VV001



MET'MAP, your aeronautical weather chart ! - Copyright ORBIFLY December 2007 - Disclaimer

ORBIFLY MET'MAP TEAM :

Programming & Development : Alexandra Zaïnal
Concept & original design : Baudouin d'Aumeries
Assistance for programming : Marc-Olivier Méhu
Technical & hardware support : Manuel Goepfert

Contact : metmap@orbifly.com




SOURCES & CREDITS :

   NOAA       Earth
Advisory